sensor_id;sensor_type;location;lat;lon;timestamp;temperature;humidity
12557;DHT22;6344;49.932;8.308;2022-07-25T08:58:06;38.40;1.00
12557;DHT22;6344;49.932;8.308;2022-07-25T09:00:33;37.60;1.00
12557;DHT22;6344;49.932;8.308;2022-07-25T09:03:01;37.50;1.00
12557;DHT22;6344;49.932;8.308;2022-07-25T09:05:31;37.90;1.00
12557;DHT22;6344;49.932;8.308;2022-07-25T09:08:05;37.90;1.00
12557;DHT22;6344;49.932;8.308;2022-07-25T09:10:32;38.50;1.00
12557;DHT22;6344;49.932;8.308;2022-07-25T09:13:03;39.00;1.00
12557;DHT22;6344;49.932;8.308;2022-07-25T09:15:33;39.10;1.00
12557;DHT22;6344;49.932;8.308;2022-07-25T09:18:02;38.90;1.00
12557;DHT22;6344;49.932;8.308;2022-07-25T09:20:39;39.90;1.00
12557;DHT22;6344;49.932;8.308;2022-07-25T09:23:06;39.80;1.00
12557;DHT22;6344;49.932;8.308;2022-07-25T09:25:34;40.50;1.00
12557;DHT22;6344;49.932;8.308;2022-07-25T09:28:11;38.60;1.00
12557;DHT22;6344;49.932;8.308;2022-07-25T09:30:38;38.40;1.00
12557;DHT22;6344;49.932;8.308;2022-07-25T09:33:06;39.20;1.00
12557;DHT22;6344;49.932;8.308;2022-07-25T09:35:34;39.60;1.00
12557;DHT22;6344;49.932;8.308;2022-07-25T09:38:09;39.50;1.00
12557;DHT22;6344;49.932;8.308;2022-07-25T09:40:35;40.10;1.00
12557;DHT22;6344;49.932;8.308;2022-07-25T09:43:02;40.20;1.00
12557;DHT22;6344;49.932;8.308;2022-07-25T09:45:29;40.00;1.00
12557;DHT22;6344;49.932;8.308;2022-07-25T09:47:58;39.60;1.00
12557;DHT22;6344;49.932;8.308;2022-07-25T09:50:27;38.20;1.00
12557;DHT22;6344;49.932;8.308;2022-07-25T09:52:56;37.60;1.00
12557;DHT22;6344;49.932;8.308;2022-07-25T09:55:26;37.30;1.00
12557;DHT22;6344;49.932;8.308;2022-07-25T09:57:53;37.80;1.00
12557;DHT22;6344;49.932;8.308;2022-07-25T10:00:22;37.40;1.00
12557;DHT22;6344;49.932;8.308;2022-07-25T10:02:55;38.10;1.00
12557;DHT22;6344;49.932;8.308;2022-07-25T10:05:33;38.20;1.00
12557;DHT22;6344;49.932;8.308;2022-07-25T10:08:06;38.20;1.00
12557;DHT22;6344;49.932;8.308;2022-07-25T10:10:38;39.30;1.00
12557;DHT22;6344;49.932;8.308;2022-07-25T10:13:07;39.40;1.00
12557;DHT22;6344;49.932;8.308;2022-07-25T10:15:46;39.50;1.00
12557;DHT22;6344;49.932;8.308;2022-07-25T10:18:14;40.10;1.00
12557;DHT22;6344;49.932;8.308;2022-07-25T10:20:42;39.70;1.00
12557;DHT22;6344;49.932;8.308;2022-07-25T10:23:20;40.00;1.00
12557;DHT22;6344;49.932;8.308;2022-07-25T10:26:00;39.70;1.00
12557;DHT22;6344;49.932;8.308;2022-07-25T10:28:36;40.10;1.00
12557;DHT22;6344;49.932;8.308;2022-07-25T10:31:14;40.40;1.00
12557;DHT22;6344;49.932;8.308;2022-07-25T10:33:41;40.90;1.00
12557;DHT22;6344;49.932;8.308;2022-07-25T10:36:08;40.50;1.00
12557;DHT22;6344;49.932;8.308;2022-07-25T10:38:38;40.10;1.00
12557;DHT22;6344;49.932;8.308;2022-07-25T10:41:07;40.20;1.00
12557;DHT22;6344;49.932;8.308;2022-07-25T10:43:37;40.90;1.00
12557;DHT22;6344;49.932;8.308;2022-07-25T10:46:10;40.90;1.00
12557;DHT22;6344;49.932;8.308;2022-07-25T10:48:39;40.90;1.00
12557;DHT22;6344;49.932;8.308;2022-07-25T10:51:07;41.40;1.00
12557;DHT22;6344;49.932;8.308;2022-07-25T10:53:36;41.80;1.00
12557;DHT22;6344;49.932;8.308;2022-07-25T10:56:07;41.50;1.00
12557;DHT22;6344;49.932;8.308;2022-07-25T11:01:08;42.30;1.00
12557;DHT22;6344;49.932;8.308;2022-07-25T11:03:35;41.10;1.00
12557;DHT22;6344;49.932;8.308;2022-07-25T11:06:02;40.20;1.00
12557;DHT22;6344;49.932;8.308;2022-07-25T11:08:32;40.40;1.00
12557;DHT22;6344;49.932;8.308;2022-07-25T11:11:00;40.40;1.00
12557;DHT22;6344;49.932;8.308;2022-07-25T11:13:28;40.10;1.00
12557;DHT22;6344;49.932;8.308;2022-07-25T11:15:56;39.90;1.00
12557;DHT22;6344;49.932;8.308;2022-07-25T11:18:31;40.10;1.00
12557;DHT22;6344;49.932;8.308;2022-07-25T11:20:59;39.60;1.00
12557;DHT22;6344;49.932;8.308;2022-07-25T11:23:26;39.70;1.00
12557;DHT22;6344;49.932;8.308;2022-07-25T11:26:03;39.50;1.00
12557;DHT22;6344;49.932;8.308;2022-07-25T11:28:38;40.10;1.00
12557;DHT22;6344;49.932;8.308;2022-07-25T11:31:05;40.80;1.00
12557;DHT22;6344;49.932;8.308;2022-07-25T11:33:32;40.90;1.00
12557;DHT22;6344;49.932;8.308;2022-07-25T11:35:59;39.20;1.00
12557;DHT22;6344;49.932;8.308;2022-07-25T11:38:26;37.70;1.00
12557;DHT22;6344;49.932;8.308;2022-07-25T11:40:53;36.90;1.00
12557;DHT22;6344;49.932;8.308;2022-07-25T11:43:20;36.60;1.00
12557;DHT22;6344;49.932;8.308;2022-07-25T11:45:57;36.40;1.00
12557;DHT22;6344;49.932;8.308;2022-07-25T11:48:35;36.60;1.00
12557;DHT22;6344;49.932;8.308;2022-07-25T11:51:13;37.60;1.00
12557;DHT22;6344;49.932;8.308;2022-07-25T11:53:44;38.60;1.00
12557;DHT22;6344;49.932;8.308;2022-07-25T11:56:17;39.00;1.00
12557;DHT22;6344;49.932;8.308;2022-07-25T11:58:55;39.50;1.00
12557;DHT22;6344;49.932;8.308;2022-07-25T12:01:25;40.30;1.00
12557;DHT22;6344;49.932;8.308;2022-07-25T12:04:07;40.00;1.00
12557;DHT22;6344;49.932;8.308;2022-07-25T12:06:34;39.60;1.00
12557;DHT22;6344;49.932;8.308;2022-07-25T12:09:09;39.00;1.00
12557;DHT22;6344;49.932;8.308;2022-07-25T12:11:36;38.40;1.00
12557;DHT22;6344;49.932;8.308;2022-07-25T12:14:04;39.00;1.00
12557;DHT22;6344;49.932;8.308;2022-07-25T12:16:32;38.90;1.00
12557;DHT22;6344;49.932;8.308;2022-07-25T12:18:59;38.60;1.00
12557;DHT22;6344;49.932;8.308;2022-07-25T12:21:26;38.10;1.00
12557;DHT22;6344;49.932;8.308;2022-07-25T12:23:53;37.40;1.00
12557;DHT22;6344;49.932;8.308;2022-07-25T12:26:19;36.90;1.00
12557;DHT22;6344;49.932;8.308;2022-07-25T12:28:46;36.70;1.00
12557;DHT22;6344;49.932;8.308;2022-07-25T12:31:13;36.70;1.00
12557;DHT22;6344;49.932;8.308;2022-07-25T12:33:41;37.70;1.00
12557;DHT22;6344;49.932;8.308;2022-07-25T12:36:11;38.00;1.00
12557;DHT22;6344;49.932;8.308;2022-07-25T12:38:37;38.00;1.00
12557;DHT22;6344;49.932;8.308;2022-07-25T12:41:04;37.30;1.00
12557;DHT22;6344;49.932;8.308;2022-07-25T12:43:31;36.70;1.00
12557;DHT22;6344;49.932;8.308;2022-07-25T12:45:58;36.10;1.00
12557;DHT22;6344;49.932;8.308;2022-07-25T12:48:24;34.90;1.00
12557;DHT22;6344;49.932;8.308;2022-07-25T12:50:53;33.80;1.00
12557;DHT22;6344;49.932;8.308;2022-07-25T12:53:19;33.00;1.00
12557;DHT22;6344;49.932;8.308;2022-07-25T12:55:46;33.00;1.00
12557;DHT22;6344;49.932;8.308;2022-07-25T12:58:13;33.40;1.00
12557;DHT22;6344;49.932;8.308;2022-07-25T13:00:42;34.00;1.00
12557;DHT22;6344;49.932;8.308;2022-07-25T13:03:09;34.70;1.00
12557;DHT22;6344;49.932;8.308;2022-07-25T13:05:35;35.30;1.00
12557;DHT22;6344;49.932;8.308;2022-07-25T13:08:04;35.40;1.00
12557;DHT22;6344;49.932;8.308;2022-07-25T13:10:31;35.20;1.00
12557;DHT22;6344;49.932;8.308;2022-07-25T13:12:58;34.50;1.00
12557;DHT22;6344;49.932;8.308;2022-07-25T13:15:25;33.70;1.00
12557;DHT22;6344;49.932;8.308;2022-07-25T13:17:52;33.50;1.00
12557;DHT22;6344;49.932;8.308;2022-07-25T13:20:19;33.60;1.00
12557;DHT22;6344;49.932;8.308;2022-07-25T13:22:46;33.90;1.00
12557;DHT22;6344;49.932;8.308;2022-07-25T13:25:14;34.50;1.00
12557;DHT22;6344;49.932;8.308;2022-07-25T13:27:40;35.90;1.00
12557;DHT22;6344;49.932;8.308;2022-07-25T13:30:08;36.90;1.00
12557;DHT22;6344;49.932;8.308;2022-07-25T13:32:34;37.60;1.00
12557;DHT22;6344;49.932;8.308;2022-07-25T13:35:02;37.60;1.00
12557;DHT22;6344;49.932;8.308;2022-07-25T13:37:29;37.60;1.00
12557;DHT22;6344;49.932;8.308;2022-07-25T13:39:57;37.60;1.00
12557;DHT22;6344;49.932;8.308;2022-07-25T13:42:25;37.60;1.00
12557;DHT22;6344;49.932;8.308;2022-07-25T13:44:51;38.50;1.00
12557;DHT22;6344;49.932;8.308;2022-07-25T13:47:18;37.90;1.00
12557;DHT22;6344;49.932;8.308;2022-07-25T13:49:45;36.60;1.00
12557;DHT22;6344;49.932;8.308;2022-07-25T13:52:12;35.70;1.00
12557;DHT22;6344;49.932;8.308;2022-07-25T13:54:38;35.30;1.00
12557;DHT22;6344;49.932;8.308;2022-07-25T13:57:05;34.90;1.00
12557;DHT22;6344;49.932;8.308;2022-07-25T13:59:35;34.80;1.00
12557;DHT22;6344;49.932;8.308;2022-07-25T14:02:01;34.90;1.00
12557;DHT22;6344;49.932;8.308;2022-07-25T14:04:28;35.60;1.00
12557;DHT22;6344;49.932;8.308;2022-07-25T14:06:55;36.40;1.00
12557;DHT22;6344;49.932;8.308;2022-07-25T14:09:22;36.60;1.00
12557;DHT22;6344;49.932;8.308;2022-07-25T14:11:49;37.40;1.00
12557;DHT22;6344;49.932;8.308;2022-07-25T14:14:16;36.70;1.00
12557;DHT22;6344;49.932;8.308;2022-07-25T14:16:44;36.40;1.00
12557;DHT22;6344;49.932;8.308;2022-07-25T14:19:12;35.50;1.00
12557;DHT22;6344;49.932;8.308;2022-07-25T14:21:38;35.70;1.00
12557;DHT22;6344;49.932;8.308;2022-07-25T14:24:06;35.60;1.00
12557;DHT22;6344;49.932;8.308;2022-07-25T14:26:33;36.30;1.00
12557;DHT22;6344;49.932;8.308;2022-07-25T14:29:00;36.90;1.00
12557;DHT22;6344;49.932;8.308;2022-07-25T14:31:27;37.20;1.00
